Terminal Aerodrome Forecast
Issued by NWS Missoula, MT

Current Version | Previous Version | Text Only | Print | Product List | Glossary On
Versions: 1 2 3 4 5 6 7 8 9 10 11 12 13 14
988
FTUS45 KMSO 192331
TAFMSO
TAF
KMSO 192331Z 2000/2024 31006KT P6SM -SHRA FEW060 BKN090
     FM200230 30008KT P6SM -RASN BKN025 OVC050
     FM200400 31010KT P6SM -SHRASN OVC050
     FM201500 12006KT 6SM -SN BKN025 OVC050=

USA.gov is the U.S. government's official web portal to all federal, state and local government web resources and services.